sensor_id;sensor_type;location;lat;lon;timestamp;temperature;humidity
17728;DHT22;8984;49.268;12.302;2022-12-24T00:00:33;12.60;99.90
17728;DHT22;8984;49.268;12.302;2022-12-24T00:03:00;12.70;99.90
17728;DHT22;8984;49.268;12.302;2022-12-24T00:05:27;12.60;99.90
17728;DHT22;8984;49.268;12.302;2022-12-24T00:07:54;12.60;99.90
17728;DHT22;8984;49.268;12.302;2022-12-24T00:10:21;12.60;99.90
17728;DHT22;8984;49.268;12.302;2022-12-24T00:12:47;12.70;99.90
17728;DHT22;8984;49.268;12.302;2022-12-24T00:15:14;12.60;99.90
17728;DHT22;8984;49.268;12.302;2022-12-24T00:17:42;12.60;99.90
17728;DHT22;8984;49.268;12.302;2022-12-24T00:20:09;12.60;99.90
17728;DHT22;8984;49.268;12.302;2022-12-24T00:22:36;12.70;99.90
17728;DHT22;8984;49.268;12.302;2022-12-24T00:25:04;12.70;99.90
17728;DHT22;8984;49.268;12.302;2022-12-24T00:27:31;12.70;99.90
17728;DHT22;8984;49.268;12.302;2022-12-24T00:29:58;12.70;99.90
17728;DHT22;8984;49.268;12.302;2022-12-24T00:35:14;12.80;99.90
17728;DHT22;8984;49.268;12.302;2022-12-24T00:37:41;12.80;99.90
17728;DHT22;8984;49.268;12.302;2022-12-24T00:40:08;12.60;99.90
17728;DHT22;8984;49.268;12.302;2022-12-24T00:42:35;12.50;99.90
17728;DHT22;8984;49.268;12.302;2022-12-24T00:45:02;12.50;99.90
17728;DHT22;8984;49.268;12.302;2022-12-24T00:47:29;12.60;99.90
17728;DHT22;8984;49.268;12.302;2022-12-24T00:49:56;12.50;99.90
17728;DHT22;8984;49.268;12.302;2022-12-24T00:52:24;12.40;99.90
17728;DHT22;8984;49.268;12.302;2022-12-24T00:54:51;12.40;99.90
17728;DHT22;8984;49.268;12.302;2022-12-24T00:57:18;12.40;99.90
17728;DHT22;8984;49.268;12.302;2022-12-24T00:59:44;12.40;99.90
17728;DHT22;8984;49.268;12.302;2022-12-24T01:02:11;12.40;99.90
17728;DHT22;8984;49.268;12.302;2022-12-24T01:04:38;12.40;99.90
17728;DHT22;8984;49.268;12.302;2022-12-24T01:07:24;12.40;99.90
17728;DHT22;8984;49.268;12.302;2022-12-24T01:09:51;12.30;99.90
17728;DHT22;8984;49.268;12.302;2022-12-24T01:12:18;12.20;99.90
17728;DHT22;8984;49.268;12.302;2022-12-24T01:14:44;12.30;99.90
17728;DHT22;8984;49.268;12.302;2022-12-24T01:17:11;12.30;99.90
17728;DHT22;8984;49.268;12.302;2022-12-24T01:19:38;12.30;99.90
17728;DHT22;8984;49.268;12.302;2022-12-24T01:22:05;12.40;99.90
17728;DHT22;8984;49.268;12.302;2022-12-24T01:24:33;12.40;99.90
17728;DHT22;8984;49.268;12.302;2022-12-24T01:27:00;12.40;99.90
17728;DHT22;8984;49.268;12.302;2022-12-24T01:29:27;12.50;99.90
17728;DHT22;8984;49.268;12.302;2022-12-24T01:31:53;12.50;99.90
17728;DHT22;8984;49.268;12.302;2022-12-24T01:34:20;12.50;99.90
17728;DHT22;8984;49.268;12.302;2022-12-24T01:36:47;12.50;99.90
17728;DHT22;8984;49.268;12.302;2022-12-24T01:39:14;12.50;99.90
17728;DHT22;8984;49.268;12.302;2022-12-24T01:41:42;12.50;99.90
17728;DHT22;8984;49.268;12.302;2022-12-24T01:44:28;12.30;99.90
17728;DHT22;8984;49.268;12.302;2022-12-24T01:46:58;12.20;99.90
17728;DHT22;8984;49.268;12.302;2022-12-24T01:49:29;12.20;99.90
17728;DHT22;8984;49.268;12.302;2022-12-24T01:52:00;12.20;99.90
17728;DHT22;8984;49.268;12.302;2022-12-24T01:54:31;12.20;99.90
17728;DHT22;8984;49.268;12.302;2022-12-24T01:57:03;12.30;99.90
17728;DHT22;8984;49.268;12.302;2022-12-24T01:59:31;12.20;99.90
17728;DHT22;8984;49.268;12.302;2022-12-24T02:02:00;12.20;99.90
17728;DHT22;8984;49.268;12.302;2022-12-24T02:04:33;12.20;99.90
17728;DHT22;8984;49.268;12.302;2022-12-24T02:07:02;12.10;99.90
17728;DHT22;8984;49.268;12.302;2022-12-24T02:09:31;12.10;99.90
17728;DHT22;8984;49.268;12.302;2022-12-24T02:11:58;12.10;99.90
17728;DHT22;8984;49.268;12.302;2022-12-24T02:14:28;12.00;99.90
17728;DHT22;8984;49.268;12.302;2022-12-24T02:17:01;12.00;99.90
17728;DHT22;8984;49.268;12.302;2022-12-24T02:20:02;12.00;99.90
17728;DHT22;8984;49.268;12.302;2022-12-24T02:22:46;12.00;99.90
17728;DHT22;8984;49.268;12.302;2022-12-24T02:25:45;12.00;99.90
17728;DHT22;8984;49.268;12.302;2022-12-24T02:28:29;12.00;99.90
17728;DHT22;8984;49.268;12.302;2022-12-24T02:31:10;12.00;99.90
17728;DHT22;8984;49.268;12.302;2022-12-24T02:33:46;12.10;99.90
17728;DHT22;8984;49.268;12.302;2022-12-24T02:36:25;12.00;99.90
17728;DHT22;8984;49.268;12.302;2022-12-24T02:39:32;12.00;99.90
17728;DHT22;8984;49.268;12.302;2022-12-24T02:42:07;12.00;99.90
17728;DHT22;8984;49.268;12.302;2022-12-24T02:44:45;12.00;99.90
17728;DHT22;8984;49.268;12.302;2022-12-24T02:47:21;12.00;99.90
17728;DHT22;8984;49.268;12.302;2022-12-24T02:49:54;12.00;99.90
17728;DHT22;8984;49.268;12.302;2022-12-24T02:52:30;12.00;99.90
17728;DHT22;8984;49.268;12.302;2022-12-24T02:55:08;12.00;99.90
17728;DHT22;8984;49.268;12.302;2022-12-24T02:57:59;12.00;99.90
17728;DHT22;8984;49.268;12.302;2022-12-24T03:00:40;11.90;99.90
17728;DHT22;8984;49.268;12.302;2022-12-24T03:03:32;11.90;99.90
17728;DHT22;8984;49.268;12.302;2022-12-24T03:06:11;11.90;99.90
17728;DHT22;8984;49.268;12.302;2022-12-24T03:08:57;12.00;99.90
17728;DHT22;8984;49.268;12.302;2022-12-24T03:11:27;11.90;99.90
17728;DHT22;8984;49.268;12.302;2022-12-24T03:13:57;11.90;99.90
17728;DHT22;8984;49.268;12.302;2022-12-24T03:16:27;11.90;99.90
17728;DHT22;8984;49.268;12.302;2022-12-24T03:18:58;11.90;99.90
17728;DHT22;8984;49.268;12.302;2022-12-24T03:21:32;11.90;99.90
17728;DHT22;8984;49.268;12.302;2022-12-24T03:24:01;11.80;99.90
17728;DHT22;8984;49.268;12.302;2022-12-24T03:26:32;11.80;99.90
17728;DHT22;8984;49.268;12.302;2022-12-24T03:29:04;11.90;99.90
17728;DHT22;8984;49.268;12.302;2022-12-24T03:31:42;11.80;99.90
17728;DHT22;8984;49.268;12.302;2022-12-24T03:34:16;11.90;99.90
17728;DHT22;8984;49.268;12.302;2022-12-24T03:36:54;11.90;99.90
17728;DHT22;8984;49.268;12.302;2022-12-24T03:39:30;11.90;99.90
17728;DHT22;8984;49.268;12.302;2022-12-24T03:42:01;11.80;99.90
17728;DHT22;8984;49.268;12.302;2022-12-24T03:44:29;11.80;99.90
17728;DHT22;8984;49.268;12.302;2022-12-24T03:46:57;11.80;99.90
17728;DHT22;8984;49.268;12.302;2022-12-24T03:49:28;11.80;99.90
17728;DHT22;8984;49.268;12.302;2022-12-24T03:51:55;11.70;99.90
17728;DHT22;8984;49.268;12.302;2022-12-24T03:54:22;11.70;99.90
17728;DHT22;8984;49.268;12.302;2022-12-24T03:56:50;11.70;99.90
17728;DHT22;8984;49.268;12.302;2022-12-24T03:59:27;11.80;99.90
17728;DHT22;8984;49.268;12.302;2022-12-24T04:01:58;11.80;99.90
17728;DHT22;8984;49.268;12.302;2022-12-24T04:04:35;11.90;99.90
17728;DHT22;8984;49.268;12.302;2022-12-24T04:07:03;12.00;99.90
17728;DHT22;8984;49.268;12.302;2022-12-24T04:09:36;12.00;99.90
17728;DHT22;8984;49.268;12.302;2022-12-24T04:12:05;12.00;99.90
17728;DHT22;8984;49.268;12.302;2022-12-24T04:14:36;12.10;99.90
17728;DHT22;8984;49.268;12.302;2022-12-24T04:17:04;12.10;99.90
17728;DHT22;8984;49.268;12.302;2022-12-24T04:19:39;12.10;99.90
17728;DHT22;8984;49.268;12.302;2022-12-24T04:22:12;12.00;99.90
17728;DHT22;8984;49.268;12.302;2022-12-24T04:25:07;12.00;99.90
17728;DHT22;8984;49.268;12.302;2022-12-24T04:27:35;12.10;99.90
17728;DHT22;8984;49.268;12.302;2022-12-24T04:30:06;12.00;99.90
17728;DHT22;8984;49.268;12.302;2022-12-24T04:32:47;12.00;99.90
17728;DHT22;8984;49.268;12.302;2022-12-24T04:35:49;12.00;99.90
17728;DHT22;8984;49.268;12.302;2022-12-24T04:38:17;11.90;99.90
17728;DHT22;8984;49.268;12.302;2022-12-24T04:40:47;11.70;99.90
17728;DHT22;8984;49.268;12.302;2022-12-24T04:43:16;11.70;99.90
17728;DHT22;8984;49.268;12.302;2022-12-24T04:46:03;11.70;99.90
17728;DHT22;8984;49.268;12.302;2022-12-24T04:48:31;11.70;99.90
17728;DHT22;8984;49.268;12.302;2022-12-24T04:51:18;11.70;99.90
17728;DHT22;8984;49.268;12.302;2022-12-24T04:53:54;11.70;99.90
17728;DHT22;8984;49.268;12.302;2022-12-24T04:56:34;11.70;99.90
17728;DHT22;8984;49.268;12.302;2022-12-24T04:59:09;11.70;99.90
17728;DHT22;8984;49.268;12.302;2022-12-24T05:01:42;11.60;99.90
17728;DHT22;8984;49.268;12.302;2022-12-24T05:04:17;11.50;99.90
17728;DHT22;8984;49.268;12.302;2022-12-24T05:06:52;11.50;99.90
17728;DHT22;8984;49.268;12.302;2022-12-24T05:09:20;11.40;99.90
17728;DHT22;8984;49.268;12.302;2022-12-24T05:11:54;11.30;99.90
17728;DHT22;8984;49.268;12.302;2022-12-24T05:14:30;11.40;99.90
17728;DHT22;8984;49.268;12.302;2022-12-24T05:17:00;11.40;99.90
17728;DHT22;8984;49.268;12.302;2022-12-24T05:19:27;11.30;99.90
17728;DHT22;8984;49.268;12.302;2022-12-24T05:21:59;11.20;99.90
17728;DHT22;8984;49.268;12.302;2022-12-24T05:24:49;11.30;99.90
17728;DHT22;8984;49.268;12.302;2022-12-24T05:27:36;11.20;99.90
17728;DHT22;8984;49.268;12.302;2022-12-24T05:30:10;11.20;99.90
17728;DHT22;8984;49.268;12.302;2022-12-24T05:32:48;11.20;99.90
17728;DHT22;8984;49.268;12.302;2022-12-24T05:35:38;11.20;99.90
17728;DHT22;8984;49.268;12.302;2022-12-24T05:38:09;11.20;99.90
17728;DHT22;8984;49.268;12.302;2022-12-24T05:40:40;11.10;99.90
17728;DHT22;8984;49.268;12.302;2022-12-24T05:43:10;11.20;99.90
17728;DHT22;8984;49.268;12.302;2022-12-24T05:45:40;11.10;99.90
17728;DHT22;8984;49.268;12.302;2022-12-24T05:48:18;11.20;99.90
17728;DHT22;8984;49.268;12.302;2022-12-24T05:50:48;11.10;99.90
17728;DHT22;8984;49.268;12.302;2022-12-24T05:53:18;11.10;99.90
17728;DHT22;8984;49.268;12.302;2022-12-24T05:55:49;11.00;99.90
17728;DHT22;8984;49.268;12.302;2022-12-24T05:58:26;11.10;99.90
17728;DHT22;8984;49.268;12.302;2022-12-24T06:01:08;11.10;99.90
17728;DHT22;8984;49.268;12.302;2022-12-24T06:03:39;11.10;99.90
17728;DHT22;8984;49.268;12.302;2022-12-24T06:06:08;11.10;99.90
17728;DHT22;8984;49.268;12.302;2022-12-24T06:08:46;11.00;99.90
17728;DHT22;8984;49.268;12.302;2022-12-24T06:11:16;11.00;99.90
17728;DHT22;8984;49.268;12.302;2022-12-24T06:13:48;11.00;99.90
17728;DHT22;8984;49.268;12.302;2022-12-24T06:16:18;11.10;99.90
17728;DHT22;8984;49.268;12.302;2022-12-24T06:18:47;11.00;99.90
17728;DHT22;8984;49.268;12.302;2022-12-24T06:21:16;11.00;99.90
17728;DHT22;8984;49.268;12.302;2022-12-24T06:23:49;11.10;99.90
17728;DHT22;8984;49.268;12.302;2022-12-24T06:26:22;11.00;99.90
17728;DHT22;8984;49.268;12.302;2022-12-24T06:28:50;11.00;99.90
17728;DHT22;8984;49.268;12.302;2022-12-24T06:31:40;11.10;99.90
17728;DHT22;8984;49.268;12.302;2022-12-24T06:34:23;11.10;99.90
17728;DHT22;8984;49.268;12.302;2022-12-24T06:36:53;11.00;99.90
17728;DHT22;8984;49.268;12.302;2022-12-24T06:39:28;11.10;99.90
17728;DHT22;8984;49.268;12.302;2022-12-24T06:41:58;11.10;99.90
17728;DHT22;8984;49.268;12.302;2022-12-24T06:44:26;11.10;99.90
17728;DHT22;8984;49.268;12.302;2022-12-24T06:46:57;11.10;99.90
17728;DHT22;8984;49.268;12.302;2022-12-24T06:49:26;11.10;99.90
17728;DHT22;8984;49.268;12.302;2022-12-24T06:51:54;11.20;99.90
17728;DHT22;8984;49.268;12.302;2022-12-24T06:54:26;11.20;99.90
17728;DHT22;8984;49.268;12.302;2022-12-24T06:56:54;11.20;99.90
17728;DHT22;8984;49.268;12.302;2022-12-24T06:59:30;11.20;99.90
17728;DHT22;8984;49.268;12.302;2022-12-24T07:02:01;11.20;99.90
17728;DHT22;8984;49.268;12.302;2022-12-24T07:04:41;11.10;99.90
17728;DHT22;8984;49.268;12.302;2022-12-24T07:07:09;11.20;99.90
17728;DHT22;8984;49.268;12.302;2022-12-24T07:09:39;11.10;99.90
17728;DHT22;8984;49.268;12.302;2022-12-24T07:12:19;11.20;99.90
17728;DHT22;8984;49.268;12.302;2022-12-24T07:14:58;11.20;99.90
17728;DHT22;8984;49.268;12.302;2022-12-24T07:17:34;11.10;99.90
17728;DHT22;8984;49.268;12.302;2022-12-24T07:20:04;11.10;99.90
17728;DHT22;8984;49.268;12.302;2022-12-24T07:22:36;11.10;99.90
17728;DHT22;8984;49.268;12.302;2022-12-24T07:25:25;11.10;99.90
17728;DHT22;8984;49.268;12.302;2022-12-24T07:27:55;11.20;99.90
17728;DHT22;8984;49.268;12.302;2022-12-24T07:30:38;11.10;99.90
17728;DHT22;8984;49.268;12.302;2022-12-24T07:33:07;11.10;99.90
17728;DHT22;8984;49.268;12.302;2022-12-24T07:35:35;11.10;99.90
17728;DHT22;8984;49.268;12.302;2022-12-24T07:38:15;11.30;99.90
17728;DHT22;8984;49.268;12.302;2022-12-24T07:40:48;11.30;99.90
17728;DHT22;8984;49.268;12.302;2022-12-24T07:43:17;11.20;99.90
17728;DHT22;8984;49.268;12.302;2022-12-24T07:45:48;11.30;99.90
17728;DHT22;8984;49.268;12.302;2022-12-24T07:48:19;11.30;99.90
17728;DHT22;8984;49.268;12.302;2022-12-24T07:50:52;11.40;99.90
17728;DHT22;8984;49.268;12.302;2022-12-24T07:53:28;11.40;99.90
17728;DHT22;8984;49.268;12.302;2022-12-24T07:55:57;11.40;99.90
17728;DHT22;8984;49.268;12.302;2022-12-24T07:58:33;11.30;99.90
17728;DHT22;8984;49.268;12.302;2022-12-24T08:01:17;11.30;99.90
17728;DHT22;8984;49.268;12.302;2022-12-24T08:04:00;11.40;99.90
17728;DHT22;8984;49.268;12.302;2022-12-24T08:06:33;11.40;99.90
17728;DHT22;8984;49.268;12.302;2022-12-24T08:09:03;11.40;99.90
17728;DHT22;8984;49.268;12.302;2022-12-24T08:11:41;11.30;99.90
17728;DHT22;8984;49.268;12.302;2022-12-24T08:14:09;11.30;99.90
17728;DHT22;8984;49.268;12.302;2022-12-24T08:16:38;11.40;99.90
17728;DHT22;8984;49.268;12.302;2022-12-24T08:19:18;11.20;99.90
17728;DHT22;8984;49.268;12.302;2022-12-24T08:21:55;11.30;99.90
17728;DHT22;8984;49.268;12.302;2022-12-24T08:24:30;11.30;99.90
17728;DHT22;8984;49.268;12.302;2022-12-24T08:27:08;11.20;99.90
17728;DHT22;8984;49.268;12.302;2022-12-24T08:29:54;11.20;99.90
17728;DHT22;8984;49.268;12.302;2022-12-24T08:32:23;11.10;99.90
17728;DHT22;8984;49.268;12.302;2022-12-24T08:35:05;11.10;99.90
17728;DHT22;8984;49.268;12.302;2022-12-24T08:37:42;11.20;99.90
17728;DHT22;8984;49.268;12.302;2022-12-24T08:40:21;11.30;99.90
17728;DHT22;8984;49.268;12.302;2022-12-24T08:43:11;11.30;99.90
17728;DHT22;8984;49.268;12.302;2022-12-24T08:45:41;11.30;99.90
17728;DHT22;8984;49.268;12.302;2022-12-24T08:48:28;11.30;99.90
17728;DHT22;8984;49.268;12.302;2022-12-24T08:50:56;11.30;99.90
17728;DHT22;8984;49.268;12.302;2022-12-24T08:53:31;11.30;99.90
17728;DHT22;8984;49.268;12.302;2022-12-24T08:56:05;11.30;99.90
17728;DHT22;8984;49.268;12.302;2022-12-24T08:58:37;11.40;99.90
17728;DHT22;8984;49.268;12.302;2022-12-24T09:01:17;11.40;99.90
17728;DHT22;8984;49.268;12.302;2022-12-24T09:03:47;11.40;99.90
17728;DHT22;8984;49.268;12.302;2022-12-24T09:06:28;11.40;99.90
17728;DHT22;8984;49.268;12.302;2022-12-24T09:09:03;11.30;99.90
17728;DHT22;8984;49.268;12.302;2022-12-24T09:11:33;11.30;99.90
17728;DHT22;8984;49.268;12.302;2022-12-24T09:14:08;11.30;99.90
17728;DHT22;8984;49.268;12.302;2022-12-24T09:16:38;11.40;99.90
17728;DHT22;8984;49.268;12.302;2022-12-24T09:19:07;11.50;99.90
17728;DHT22;8984;49.268;12.302;2022-12-24T09:21:42;11.60;99.90
17728;DHT22;8984;49.268;12.302;2022-12-24T09:24:28;11.60;99.90
17728;DHT22;8984;49.268;12.302;2022-12-24T09:27:16;11.60;99.90
17728;DHT22;8984;49.268;12.302;2022-12-24T09:29:46;11.60;99.90
17728;DHT22;8984;49.268;12.302;2022-12-24T09:32:15;11.60;99.90
17728;DHT22;8984;49.268;12.302;2022-12-24T09:34:47;11.60;99.90
17728;DHT22;8984;49.268;12.302;2022-12-24T09:37:22;11.70;99.90
17728;DHT22;8984;49.268;12.302;2022-12-24T09:39:56;11.90;99.90
17728;DHT22;8984;49.268;12.302;2022-12-24T09:42:52;12.00;99.90
17728;DHT22;8984;49.268;12.302;2022-12-24T09:45:32;12.00;99.90
17728;DHT22;8984;49.268;12.302;2022-12-24T09:48:13;12.10;99.90
17728;DHT22;8984;49.268;12.302;2022-12-24T09:50:50;12.00;99.90
17728;DHT22;8984;49.268;12.302;2022-12-24T09:53:28;12.00;99.90
17728;DHT22;8984;49.268;12.302;2022-12-24T09:56:17;11.90;99.90
17728;DHT22;8984;49.268;12.302;2022-12-24T09:58:58;11.90;99.90
17728;DHT22;8984;49.268;12.302;2022-12-24T10:01:38;11.90;99.90
17728;DHT22;8984;49.268;12.302;2022-12-24T10:04:11;11.90;99.90
17728;DHT22;8984;49.268;12.302;2022-12-24T10:06:52;11.90;99.90
17728;DHT22;8984;49.268;12.302;2022-12-24T10:09:36;12.00;99.90
17728;DHT22;8984;49.268;12.302;2022-12-24T10:12:17;12.10;99.90
17728;DHT22;8984;49.268;12.302;2022-12-24T10:14:54;12.00;99.90
17728;DHT22;8984;49.268;12.302;2022-12-24T10:17:51;12.00;99.90
17728;DHT22;8984;49.268;12.302;2022-12-24T10:20:35;11.90;99.90
17728;DHT22;8984;49.268;12.302;2022-12-24T10:23:18;12.10;99.90
17728;DHT22;8984;49.268;12.302;2022-12-24T10:25:51;12.40;99.90
17728;DHT22;8984;49.268;12.302;2022-12-24T10:28:33;12.60;99.90
17728;DHT22;8984;49.268;12.302;2022-12-24T10:31:04;12.70;99.90
17728;DHT22;8984;49.268;12.302;2022-12-24T10:33:43;12.80;99.90
17728;DHT22;8984;49.268;12.302;2022-12-24T10:36:25;12.90;99.90
17728;DHT22;8984;49.268;12.302;2022-12-24T10:39:00;13.00;99.90
17728;DHT22;8984;49.268;12.302;2022-12-24T10:41:29;12.90;99.90
17728;DHT22;8984;49.268;12.302;2022-12-24T10:44:15;13.00;99.90
17728;DHT22;8984;49.268;12.302;2022-12-24T10:46:49;13.10;99.90
17728;DHT22;8984;49.268;12.302;2022-12-24T10:49:45;13.30;99.90
17728;DHT22;8984;49.268;12.302;2022-12-24T10:52:24;13.30;99.90
17728;DHT22;8984;49.268;12.302;2022-12-24T10:55:10;13.30;99.90
17728;DHT22;8984;49.268;12.302;2022-12-24T11:00:53;13.10;99.90
17728;DHT22;8984;49.268;12.302;2022-12-24T11:03:39;13.10;99.90
17728;DHT22;8984;49.268;12.302;2022-12-24T11:06:32;13.00;99.90
17728;DHT22;8984;49.268;12.302;2022-12-24T11:09:24;12.80;99.90
17728;DHT22;8984;49.268;12.302;2022-12-24T11:12:03;12.70;99.90
17728;DHT22;8984;49.268;12.302;2022-12-24T11:14:46;12.30;99.90
17728;DHT22;8984;49.268;12.302;2022-12-24T11:17:26;12.50;99.90
17728;DHT22;8984;49.268;12.302;2022-12-24T11:19:58;12.60;99.90
17728;DHT22;8984;49.268;12.302;2022-12-24T11:22:31;12.70;99.90
17728;DHT22;8984;49.268;12.302;2022-12-24T11:25:23;12.60;99.90
17728;DHT22;8984;49.268;12.302;2022-12-24T11:28:06;12.50;99.90
17728;DHT22;8984;49.268;12.302;2022-12-24T11:30:58;12.60;99.90
17728;DHT22;8984;49.268;12.302;2022-12-24T11:33:29;12.70;99.90
17728;DHT22;8984;49.268;12.302;2022-12-24T11:36:02;12.70;99.90
17728;DHT22;8984;49.268;12.302;2022-12-24T11:38:37;12.70;99.90
17728;DHT22;8984;49.268;12.302;2022-12-24T11:41:08;12.60;99.90
17728;DHT22;8984;49.268;12.302;2022-12-24T11:44:08;12.50;99.90
17728;DHT22;8984;49.268;12.302;2022-12-24T11:46:48;12.50;99.90
17728;DHT22;8984;49.268;12.302;2022-12-24T11:49:27;12.40;99.90
17728;DHT22;8984;49.268;12.302;2022-12-24T11:52:20;12.40;99.90
17728;DHT22;8984;49.268;12.302;2022-12-24T11:55:19;12.50;99.90
17728;DHT22;8984;49.268;12.302;2022-12-24T11:57:56;12.70;99.90
17728;DHT22;8984;49.268;12.302;2022-12-24T12:00:29;12.60;99.90
17728;DHT22;8984;49.268;12.302;2022-12-24T12:03:12;12.70;99.90
17728;DHT22;8984;49.268;12.302;2022-12-24T12:06:00;12.90;99.90
17728;DHT22;8984;49.268;12.302;2022-12-24T12:08:35;12.90;99.90
17728;DHT22;8984;49.268;12.302;2022-12-24T12:11:14;13.00;99.90
17728;DHT22;8984;49.268;12.302;2022-12-24T12:13:50;13.00;99.90
17728;DHT22;8984;49.268;12.302;2022-12-24T12:16:22;13.20;99.90
17728;DHT22;8984;49.268;12.302;2022-12-24T12:18:57;13.00;99.90
17728;DHT22;8984;49.268;12.302;2022-12-24T12:21:34;13.00;99.90
17728;DHT22;8984;49.268;12.302;2022-12-24T12:24:15;13.20;99.90
17728;DHT22;8984;49.268;12.302;2022-12-24T12:27:06;13.20;99.90
17728;DHT22;8984;49.268;12.302;2022-12-24T12:29:43;13.30;99.90
17728;DHT22;8984;49.268;12.302;2022-12-24T12:32:30;13.30;99.90
17728;DHT22;8984;49.268;12.302;2022-12-24T12:35:25;13.30;99.90
17728;DHT22;8984;49.268;12.302;2022-12-24T12:38:02;13.30;99.90
17728;DHT22;8984;49.268;12.302;2022-12-24T12:41:01;13.30;99.90
17728;DHT22;8984;49.268;12.302;2022-12-24T12:43:55;13.40;99.90
17728;DHT22;8984;49.268;12.302;2022-12-24T12:46:46;13.40;99.90
17728;DHT22;8984;49.268;12.302;2022-12-24T12:49:27;13.30;99.90
17728;DHT22;8984;49.268;12.302;2022-12-24T12:52:10;13.50;99.90
17728;DHT22;8984;49.268;12.302;2022-12-24T12:54:54;13.50;99.90
17728;DHT22;8984;49.268;12.302;2022-12-24T12:57:53;13.60;99.90
17728;DHT22;8984;49.268;12.302;2022-12-24T13:00:38;13.60;99.90
17728;DHT22;8984;49.268;12.302;2022-12-24T13:03:39;13.80;99.90
17728;DHT22;8984;49.268;12.302;2022-12-24T13:09:55;14.00;99.90
17728;DHT22;8984;49.268;12.302;2022-12-24T13:12:53;13.90;99.90
17728;DHT22;8984;49.268;12.302;2022-12-24T13:18:51;13.90;99.90
17728;DHT22;8984;49.268;12.302;2022-12-24T13:21:29;13.90;99.90
17728;DHT22;8984;49.268;12.302;2022-12-24T13:24:11;13.90;99.90
17728;DHT22;8984;49.268;12.302;2022-12-24T13:26:41;13.90;99.90
17728;DHT22;8984;49.268;12.302;2022-12-24T13:29:28;14.00;99.90
17728;DHT22;8984;49.268;12.302;2022-12-24T13:32:36;14.00;99.90
17728;DHT22;8984;49.268;12.302;2022-12-24T13:36:06;13.90;99.90
17728;DHT22;8984;49.268;12.302;2022-12-24T13:38:45;13.80;99.90
17728;DHT22;8984;49.268;12.302;2022-12-24T13:41:49;13.70;99.90
17728;DHT22;8984;49.268;12.302;2022-12-24T13:44:33;13.60;99.90
17728;DHT22;8984;49.268;12.302;2022-12-24T13:47:19;13.70;99.90
17728;DHT22;8984;49.268;12.302;2022-12-24T13:49:51;13.50;99.90
17728;DHT22;8984;49.268;12.302;2022-12-24T13:52:31;13.60;99.90
17728;DHT22;8984;49.268;12.302;2022-12-24T13:55:12;13.60;99.90
17728;DHT22;8984;49.268;12.302;2022-12-24T14:01:09;13.60;99.90
17728;DHT22;8984;49.268;12.302;2022-12-24T14:03:42;13.50;99.90
17728;DHT22;8984;49.268;12.302;2022-12-24T14:06:12;13.50;99.90
17728;DHT22;8984;49.268;12.302;2022-12-24T14:08:47;13.40;99.90
17728;DHT22;8984;49.268;12.302;2022-12-24T14:11:17;13.30;99.90
17728;DHT22;8984;49.268;12.302;2022-12-24T14:14:08;13.10;99.90
17728;DHT22;8984;49.268;12.302;2022-12-24T14:16:52;13.10;99.90
17728;DHT22;8984;49.268;12.302;2022-12-24T14:19:22;13.10;99.90
17728;DHT22;8984;49.268;12.302;2022-12-24T14:21:54;13.00;99.90
17728;DHT22;8984;49.268;12.302;2022-12-24T14:24:22;12.90;99.90
17728;DHT22;8984;49.268;12.302;2022-12-24T14:26:53;12.90;99.90
17728;DHT22;8984;49.268;12.302;2022-12-24T14:29:25;12.90;99.90
17728;DHT22;8984;49.268;12.302;2022-12-24T14:31:56;12.90;99.90
17728;DHT22;8984;49.268;12.302;2022-12-24T14:34:24;12.90;99.90
17728;DHT22;8984;49.268;12.302;2022-12-24T14:36:53;12.80;99.90
17728;DHT22;8984;49.268;12.302;2022-12-24T14:39:25;12.80;99.90
17728;DHT22;8984;49.268;12.302;2022-12-24T14:42:01;12.80;99.90
17728;DHT22;8984;49.268;12.302;2022-12-24T14:44:39;12.80;99.90
17728;DHT22;8984;49.268;12.302;2022-12-24T14:47:18;12.70;99.90
17728;DHT22;8984;49.268;12.302;2022-12-24T14:49:59;12.80;99.90
17728;DHT22;8984;49.268;12.302;2022-12-24T14:52:34;12.70;99.90
17728;DHT22;8984;49.268;12.302;2022-12-24T14:55:28;12.70;99.90
17728;DHT22;8984;49.268;12.302;2022-12-24T14:58:18;12.60;99.90
17728;DHT22;8984;49.268;12.302;2022-12-24T15:00:46;12.60;99.90
17728;DHT22;8984;49.268;12.302;2022-12-24T15:03:16;12.60;99.90
17728;DHT22;8984;49.268;12.302;2022-12-24T15:05:44;12.60;99.90
17728;DHT22;8984;49.268;12.302;2022-12-24T15:08:15;12.50;99.90
17728;DHT22;8984;49.268;12.302;2022-12-24T15:10:45;12.50;99.90
17728;DHT22;8984;49.268;12.302;2022-12-24T15:13:21;12.40;99.90
17728;DHT22;8984;49.268;12.302;2022-12-24T15:15:51;12.40;99.90
17728;DHT22;8984;49.268;12.302;2022-12-24T15:18:23;12.40;99.90
17728;DHT22;8984;49.268;12.302;2022-12-24T15:20:53;12.20;99.90
17728;DHT22;8984;49.268;12.302;2022-12-24T15:23:26;12.30;99.90
17728;DHT22;8984;49.268;12.302;2022-12-24T15:26:06;12.20;99.90
17728;DHT22;8984;49.268;12.302;2022-12-24T15:28:35;12.30;99.90
17728;DHT22;8984;49.268;12.302;2022-12-24T15:31:09;12.20;99.90
17728;DHT22;8984;49.268;12.302;2022-12-24T15:33:38;12.20;99.90
17728;DHT22;8984;49.268;12.302;2022-12-24T15:36:06;12.10;99.90
17728;DHT22;8984;49.268;12.302;2022-12-24T15:38:35;12.10;99.90
17728;DHT22;8984;49.268;12.302;2022-12-24T15:41:07;12.00;99.90
17728;DHT22;8984;49.268;12.302;2022-12-24T15:43:42;12.00;99.90
17728;DHT22;8984;49.268;12.302;2022-12-24T15:46:17;12.00;99.90
17728;DHT22;8984;49.268;12.302;2022-12-24T15:48:45;12.00;99.90
17728;DHT22;8984;49.268;12.302;2022-12-24T15:51:21;11.90;99.90
17728;DHT22;8984;49.268;12.302;2022-12-24T15:53:50;11.80;99.90
17728;DHT22;8984;49.268;12.302;2022-12-24T15:56:29;11.80;99.90
17728;DHT22;8984;49.268;12.302;2022-12-24T15:59:11;11.80;99.90
17728;DHT22;8984;49.268;12.302;2022-12-24T16:01:38;12.00;99.90
17728;DHT22;8984;49.268;12.302;2022-12-24T16:04:12;12.00;99.90
17728;DHT22;8984;49.268;12.302;2022-12-24T16:06:56;12.10;99.90
17728;DHT22;8984;49.268;12.302;2022-12-24T16:09:40;12.00;99.90
17728;DHT22;8984;49.268;12.302;2022-12-24T16:12:13;12.00;99.90
17728;DHT22;8984;49.268;12.302;2022-12-24T16:14:45;12.00;99.90
17728;DHT22;8984;49.268;12.302;2022-12-24T16:17:18;11.80;99.90
17728;DHT22;8984;49.268;12.302;2022-12-24T16:19:48;11.80;99.90
17728;DHT22;8984;49.268;12.302;2022-12-24T16:22:17;11.70;99.90
17728;DHT22;8984;49.268;12.302;2022-12-24T16:24:58;11.60;99.90
17728;DHT22;8984;49.268;12.302;2022-12-24T16:27:25;11.60;99.90
17728;DHT22;8984;49.268;12.302;2022-12-24T16:29:52;11.50;99.90
17728;DHT22;8984;49.268;12.302;2022-12-24T16:32:28;11.50;99.90
17728;DHT22;8984;49.268;12.302;2022-12-24T16:34:57;11.40;99.90
17728;DHT22;8984;49.268;12.302;2022-12-24T16:37:24;11.30;99.90
17728;DHT22;8984;49.268;12.302;2022-12-24T16:39:51;11.20;99.90